sensor_id;sensor_type;location;lat;lon;timestamp;pressure;altitude;pressure_sealevel;temperature;humidity
21904;BME280;11116;51.554;7.812;2022-07-22T00:01:30;101225.34;;;16.13;100.00
21904;BME280;11116;51.554;7.812;2022-07-22T00:03:57;101221.97;;;16.11;100.00
21904;BME280;11116;51.554;7.812;2022-07-22T00:06:24;101223.94;;;16.09;100.00
21904;BME280;11116;51.554;7.812;2022-07-22T00:08:52;101229.53;;;16.16;100.00
21904;BME280;11116;51.554;7.812;2022-07-22T00:11:19;101229.88;;;16.03;100.00
21904;BME280;11116;51.554;7.812;2022-07-22T00:13:46;101234.34;;;16.03;100.00
21904;BME280;11116;51.554;7.812;2022-07-22T00:16:13;101239.25;;;16.07;100.00
21904;BME280;11116;51.554;7.812;2022-07-22T00:18:40;101232.25;;;16.06;100.00
21904;BME280;11116;51.554;7.812;2022-07-22T00:21:07;101232.00;;;16.00;100.00
21904;BME280;11116;51.554;7.812;2022-07-22T00:23:33;101234.13;;;15.96;100.00
21904;BME280;11116;51.554;7.812;2022-07-22T00:26:01;101236.63;;;15.98;100.00
21904;BME280;11116;51.554;7.812;2022-07-22T00:28:28;101228.63;;;15.98;100.00
21904;BME280;11116;51.554;7.812;2022-07-22T00:30:55;101232.53;;;16.03;100.00
21904;BME280;11116;51.554;7.812;2022-07-22T00:33:22;101232.91;;;16.08;100.00
21904;BME280;11116;51.554;7.812;2022-07-22T00:35:49;101232.84;;;16.00;100.00
21904;BME280;11116;51.554;7.812;2022-07-22T00:38:16;101229.28;;;16.09;100.00
21904;BME280;11116;51.554;7.812;2022-07-22T00:40:43;101231.41;;;16.06;100.00
21904;BME280;11116;51.554;7.812;2022-07-22T00:43:11;101237.44;;;16.08;100.00
21904;BME280;11116;51.554;7.812;2022-07-22T00:45:38;101237.75;;;16.05;100.00
21904;BME280;11116;51.554;7.812;2022-07-22T00:48:05;101231.94;;;16.09;100.00
21904;BME280;11116;51.554;7.812;2022-07-22T00:50:32;101230.34;;;15.99;100.00
21904;BME280;11116;51.554;7.812;2022-07-22T00:52:58;101228.59;;;16.07;100.00
21904;BME280;11116;51.554;7.812;2022-07-22T00:55:25;101229.56;;;16.06;100.00
21904;BME280;11116;51.554;7.812;2022-07-22T00:57:52;101216.94;;;16.08;100.00
21904;BME280;11116;51.554;7.812;2022-07-22T01:00:21;101228.31;;;16.10;100.00
21904;BME280;11116;51.554;7.812;2022-07-22T01:02:50;101223.09;;;16.09;100.00
21904;BME280;11116;51.554;7.812;2022-07-22T01:05:17;101225.94;;;16.07;100.00
21904;BME280;11116;51.554;7.812;2022-07-22T01:07:44;101229.03;;;16.03;100.00
21904;BME280;11116;51.554;7.812;2022-07-22T01:10:10;101224.53;;;16.03;100.00
21904;BME280;11116;51.554;7.812;2022-07-22T01:12:39;101227.50;;;16.00;100.00
21904;BME280;11116;51.554;7.812;2022-07-22T01:15:07;101228.63;;;15.98;100.00
21904;BME280;11116;51.554;7.812;2022-07-22T01:17:35;101229.50;;;15.98;100.00
21904;BME280;11116;51.554;7.812;2022-07-22T01:20:05;101236.44;;;16.09;100.00
21904;BME280;11116;51.554;7.812;2022-07-22T01:22:32;101228.94;;;15.95;100.00
21904;BME280;11116;51.554;7.812;2022-07-22T01:24:59;101229.31;;;16.00;100.00
21904;BME280;11116;51.554;7.812;2022-07-22T01:27:26;101234.78;;;16.08;100.00
21904;BME280;11116;51.554;7.812;2022-07-22T01:29:55;101232.91;;;16.08;100.00
21904;BME280;11116;51.554;7.812;2022-07-22T01:32:21;101229.13;;;16.11;100.00
21904;BME280;11116;51.554;7.812;2022-07-22T01:34:48;101229.44;;;16.08;100.00
21904;BME280;11116;51.554;7.812;2022-07-22T01:37:17;101234.53;;;16.01;100.00
21904;BME280;11116;51.554;7.812;2022-07-22T01:39:43;101231.41;;;16.06;100.00
21904;BME280;11116;51.554;7.812;2022-07-22T01:42:11;101242.78;;;16.08;100.00
21904;BME280;11116;51.554;7.812;2022-07-22T01:44:38;101235.88;;;16.05;100.00
21904;BME280;11116;51.554;7.812;2022-07-22T01:47:06;101236.63;;;15.98;100.00
21904;BME280;11116;51.554;7.812;2022-07-22T01:49:33;101239.50;;;15.87;100.00
21904;BME280;11116;51.554;7.812;2022-07-22T01:52:00;101236.25;;;15.93;100.00
21904;BME280;11116;51.554;7.812;2022-07-22T01:54:28;101238.81;;;15.85;100.00
21904;BME280;11116;51.554;7.812;2022-07-22T01:56:55;101235.81;;;15.88;100.00
21904;BME280;11116;51.554;7.812;2022-07-22T01:59:22;101242.28;;;15.85;100.00
21904;BME280;11116;51.554;7.812;2022-07-22T02:01:49;101235.53;;;15.91;100.00
21904;BME280;11116;51.554;7.812;2022-07-22T02:04:16;101236.16;;;15.85;100.00
21904;BME280;11116;51.554;7.812;2022-07-22T02:06:42;101237.13;;;15.83;100.00
21904;BME280;11116;51.554;7.812;2022-07-22T02:09:10;101233.50;;;15.85;100.00
21904;BME280;11116;51.554;7.812;2022-07-22T02:11:43;101235.59;;;15.81;100.00
21904;BME280;11116;51.554;7.812;2022-07-22T02:14:13;101233.53;;;15.75;100.00
21904;BME280;11116;51.554;7.812;2022-07-22T02:16:40;101233.06;;;15.79;100.00
21904;BME280;11116;51.554;7.812;2022-07-22T02:19:10;101232.69;;;15.74;100.00
21904;BME280;11116;51.554;7.812;2022-07-22T02:21:38;101230.75;;;15.67;100.00
21904;BME280;11116;51.554;7.812;2022-07-22T02:24:05;101226.53;;;15.64;100.00
21904;BME280;11116;51.554;7.812;2022-07-22T02:26:31;101223.44;;;15.69;100.00
21904;BME280;11116;51.554;7.812;2022-07-22T02:29:00;101220.41;;;15.64;100.00
21904;BME280;11116;51.554;7.812;2022-07-22T02:31:27;101226.53;;;15.64;100.00
21904;BME280;11116;51.554;7.812;2022-07-22T02:33:53;101230.34;;;15.62;100.00
21904;BME280;11116;51.554;7.812;2022-07-22T02:36:22;101221.25;;;15.55;100.00
21904;BME280;11116;51.554;7.812;2022-07-22T02:38:49;101227.00;;;15.50;100.00
21904;BME280;11116;51.554;7.812;2022-07-22T02:41:16;101224.47;;;15.58;100.00
21904;BME280;11116;51.554;7.812;2022-07-22T02:43:49;101227.44;;;15.55;100.00
21904;BME280;11116;51.554;7.812;2022-07-22T02:46:20;101222.41;;;15.52;100.00
21904;BME280;11116;51.554;7.812;2022-07-22T02:48:48;101225.59;;;15.56;100.00
21904;BME280;11116;51.554;7.812;2022-07-22T02:51:17;101225.75;;;15.54;100.00
21904;BME280;11116;51.554;7.812;2022-07-22T02:53:44;101220.16;;;15.48;100.00
21904;BME280;11116;51.554;7.812;2022-07-22T02:56:11;101218.88;;;15.52;100.00
21904;BME280;11116;51.554;7.812;2022-07-22T02:58:38;101229.25;;;15.55;100.00
21904;BME280;11116;51.554;7.812;2022-07-22T03:01:05;101229.94;;;15.57;100.00
21904;BME280;11116;51.554;7.812;2022-07-22T03:03:43;101228.53;;;15.53;100.00
21904;BME280;11116;51.554;7.812;2022-07-22T03:06:10;101230.50;;;15.51;100.00
21904;BME280;11116;51.554;7.812;2022-07-22T03:08:43;101227.84;;;15.51;100.00
21904;BME280;11116;51.554;7.812;2022-07-22T03:11:11;101228.69;;;15.51;100.00
21904;BME280;11116;51.554;7.812;2022-07-22T03:13:38;101237.25;;;15.55;100.00
21904;BME280;11116;51.554;7.812;2022-07-22T03:16:04;101237.94;;;15.47;100.00
21904;BME280;11116;51.554;7.812;2022-07-22T03:18:31;101240.59;;;15.57;100.00
21904;BME280;11116;51.554;7.812;2022-07-22T03:20:59;101240.31;;;15.50;100.00
21904;BME280;11116;51.554;7.812;2022-07-22T03:23:26;101245.91;;;15.57;100.00
21904;BME280;11116;51.554;7.812;2022-07-22T03:25:55;101234.88;;;15.52;100.00
21904;BME280;11116;51.554;7.812;2022-07-22T03:28:21;101238.31;;;15.62;100.00
21904;BME280;11116;51.554;7.812;2022-07-22T03:30:48;101242.69;;;15.53;100.00
21904;BME280;11116;51.554;7.812;2022-07-22T03:33:16;101231.56;;;15.67;100.00
21904;BME280;11116;51.554;7.812;2022-07-22T03:35:43;101231.19;;;15.62;100.00
21904;BME280;11116;51.554;7.812;2022-07-22T03:38:12;101237.78;;;15.58;100.00
21904;BME280;11116;51.554;7.812;2022-07-22T03:40:39;101222.22;;;15.54;100.00
21904;BME280;11116;51.554;7.812;2022-07-22T03:43:05;101239.75;;;15.56;100.00
21904;BME280;11116;51.554;7.812;2022-07-22T03:45:32;101229.94;;;15.57;100.00
21904;BME280;11116;51.554;7.812;2022-07-22T03:47:59;101233.34;;;15.49;100.00
21904;BME280;11116;51.554;7.812;2022-07-22T03:50:29;101237.13;;;15.47;100.00
21904;BME280;11116;51.554;7.812;2022-07-22T03:52:56;101232.63;;;15.47;100.00
21904;BME280;11116;51.554;7.812;2022-07-22T03:55:24;101236.69;;;15.51;100.00
21904;BME280;11116;51.554;7.812;2022-07-22T03:57:54;101237.66;;;15.50;100.00
21904;BME280;11116;51.554;7.812;2022-07-22T04:00:25;101241.56;;;15.56;100.00
21904;BME280;11116;51.554;7.812;2022-07-22T04:02:52;101240.19;;;15.52;100.00
21904;BME280;11116;51.554;7.812;2022-07-22T04:05:37;101246.19;;;15.54;100.00
21904;BME280;11116;51.554;7.812;2022-07-22T04:08:05;101246.06;;;15.55;100.00
21904;BME280;11116;51.554;7.812;2022-07-22T04:10:34;101243.28;;;15.47;100.00
21904;BME280;11116;51.554;7.812;2022-07-22T04:13:01;101242.97;;;15.50;100.00
21904;BME280;11116;51.554;7.812;2022-07-22T04:15:48;101241.44;;;15.57;100.00
21904;BME280;11116;51.554;7.812;2022-07-22T04:18:14;101240.88;;;15.54;100.00
21904;BME280;11116;51.554;7.812;2022-07-22T04:20:43;101240.59;;;15.57;100.00
21904;BME280;11116;51.554;7.812;2022-07-22T04:23:33;101242.84;;;15.52;100.00
21904;BME280;11116;51.554;7.812;2022-07-22T04:26:10;101235.84;;;15.51;100.00
21904;BME280;11116;51.554;7.812;2022-07-22T04:28:37;101236.94;;;15.58;100.00
21904;BME280;11116;51.554;7.812;2022-07-22T04:31:04;101236.66;;;15.61;100.00
21904;BME280;11116;51.554;7.812;2022-07-22T04:33:32;101236.38;;;15.64;100.00
21904;BME280;11116;51.554;7.812;2022-07-22T04:35:59;101232.59;;;15.57;100.00
21904;BME280;11116;51.554;7.812;2022-07-22T04:38:25;101227.38;;;15.65;100.00
21904;BME280;11116;51.554;7.812;2022-07-22T04:40:59;101233.25;;;15.68;100.00
21904;BME280;11116;51.554;7.812;2022-07-22T04:43:27;101231.56;;;15.67;100.00
21904;BME280;11116;51.554;7.812;2022-07-22T04:45:55;101235.72;;;15.79;100.00
21904;BME280;11116;51.554;7.812;2022-07-22T04:48:24;101233.91;;;15.80;100.00
21904;BME280;11116;51.554;7.812;2022-07-22T04:50:52;101232.88;;;15.63;100.00
21904;BME280;11116;51.554;7.812;2022-07-22T04:53:19;101227.66;;;15.62;100.00
21904;BME280;11116;51.554;7.812;2022-07-22T04:55:46;101234.84;;;15.61;100.00
21904;BME280;11116;51.554;7.812;2022-07-22T04:58:13;101235.78;;;15.70;100.00
21904;BME280;11116;51.554;7.812;2022-07-22T05:00:41;101231.69;;;15.75;100.00
21904;BME280;11116;51.554;7.812;2022-07-22T05:03:08;101232.84;;;15.73;100.00
21904;BME280;11116;51.554;7.812;2022-07-22T05:05:35;101229.56;;;15.79;100.00
21904;BME280;11116;51.554;7.812;2022-07-22T05:08:02;101233.63;;;15.83;100.00
21904;BME280;11116;51.554;7.812;2022-07-22T05:10:29;101235.16;;;15.86;100.00
21904;BME280;11116;51.554;7.812;2022-07-22T05:12:56;101231.50;;;15.87;100.00
21904;BME280;11116;51.554;7.812;2022-07-22T05:15:23;101230.81;;;15.85;100.00
21904;BME280;11116;51.554;7.812;2022-07-22T05:17:51;101238.25;;;15.81;100.00
21904;BME280;11116;51.554;7.812;2022-07-22T05:20:22;101230.28;;;15.81;100.00
21904;BME280;11116;51.554;7.812;2022-07-22T05:22:48;101237.69;;;15.87;100.00
21904;BME280;11116;51.554;7.812;2022-07-22T05:25:21;101237.09;;;15.93;100.00
21904;BME280;11116;51.554;7.812;2022-07-22T05:27:51;101238.25;;;15.81;100.00
21904;BME280;11116;51.554;7.812;2022-07-22T05:30:23;101237.09;;;15.93;100.00
21904;BME280;11116;51.554;7.812;2022-07-22T05:32:53;101240.56;;;15.94;100.00
21904;BME280;11116;51.554;7.812;2022-07-22T05:35:40;101240.47;;;15.86;100.00
21904;BME280;11116;51.554;7.812;2022-07-22T05:38:07;101240.28;;;15.97;100.00
21904;BME280;11116;51.554;7.812;2022-07-22T05:40:33;101234.25;;;15.95;100.00
21904;BME280;11116;51.554;7.812;2022-07-22T05:43:01;101232.16;;;15.98;100.00
21904;BME280;11116;51.554;7.812;2022-07-22T05:45:28;101233.03;;;15.89;100.00
21904;BME280;11116;51.554;7.812;2022-07-22T05:47:56;101234.25;;;15.95;100.00
21904;BME280;11116;51.554;7.812;2022-07-22T05:50:23;101227.50;;;16.00;100.00
21904;BME280;11116;51.554;7.812;2022-07-22T05:52:50;101226.56;;;16.19;100.00
21904;BME280;11116;51.554;7.812;2022-07-22T05:55:17;101225.03;;;16.16;100.00
21904;BME280;11116;51.554;7.812;2022-07-22T05:57:46;101233.63;;;16.10;100.00
21904;BME280;11116;51.554;7.812;2022-07-22T06:00:13;101235.59;;;16.08;100.00
21904;BME280;11116;51.554;7.812;2022-07-22T06:02:40;101228.81;;;16.14;100.00
21904;BME280;11116;51.554;7.812;2022-07-22T06:05:12;101221.44;;;16.25;100.00
21904;BME280;11116;51.554;7.812;2022-07-22T06:07:39;101227.88;;;16.32;100.00
21904;BME280;11116;51.554;7.812;2022-07-22T06:10:08;101236.16;;;16.29;100.00
21904;BME280;11116;51.554;7.812;2022-07-22T06:12:35;101235.78;;;16.24;100.00
21904;BME280;11116;51.554;7.812;2022-07-22T06:15:02;101234.88;;;16.16;100.00
21904;BME280;11116;51.554;7.812;2022-07-22T06:17:30;101233.47;;;16.12;100.00
21904;BME280;11116;51.554;7.812;2022-07-22T06:19:57;101230.72;;;16.31;100.00
21904;BME280;11116;51.554;7.812;2022-07-22T06:22:25;101236.97;;;16.12;100.00
21904;BME280;11116;51.554;7.812;2022-07-22T06:24:52;101242.69;;;15.53;100.00
21904;BME280;11116;51.554;7.812;2022-07-22T06:27:19;101237.84;;;15.20;100.00
21904;BME280;11116;51.554;7.812;2022-07-22T06:29:48;101250.19;;;15.11;100.00
21904;BME280;11116;51.554;7.812;2022-07-22T06:32:14;101252.13;;;15.19;100.00
21904;BME280;11116;51.554;7.812;2022-07-22T06:34:41;101245.28;;;15.07;100.00
21904;BME280;11116;51.554;7.812;2022-07-22T06:37:08;101256.19;;;15.13;100.00
21904;BME280;11116;51.554;7.812;2022-07-22T06:39:36;101258.88;;;15.04;100.00
21904;BME280;11116;51.554;7.812;2022-07-22T06:42:14;101261.25;;;15.16;100.00
21904;BME280;11116;51.554;7.812;2022-07-22T06:44:50;101257.22;;;15.03;100.00
21904;BME280;11116;51.554;7.812;2022-07-22T06:47:36;101259.72;;;15.14;100.00
21904;BME280;11116;51.554;7.812;2022-07-22T06:50:05;101253.81;;;15.10;100.00
21904;BME280;11116;51.554;7.812;2022-07-22T06:52:33;101253.69;;;15.02;100.00
21904;BME280;11116;51.554;7.812;2022-07-22T06:55:01;101258.72;;;15.15;100.00
21904;BME280;11116;51.554;7.812;2022-07-22T06:57:33;101241.66;;;14.98;100.00
21904;BME280;11116;51.554;7.812;2022-07-22T07:00:00;101244.16;;;15.09;100.00
21904;BME280;11116;51.554;7.812;2022-07-22T07:02:28;101247.22;;;15.24;100.00
21904;BME280;11116;51.554;7.812;2022-07-22T07:04:55;101244.25;;;15.37;100.00
21904;BME280;11116;51.554;7.812;2022-07-22T07:07:21;101245.34;;;15.53;100.00
21904;BME280;11116;51.554;7.812;2022-07-22T07:09:56;101238.88;;;15.65;100.00
21904;BME280;11116;51.554;7.812;2022-07-22T07:12:40;101238.97;;;15.73;100.00
21904;BME280;11116;51.554;7.812;2022-07-22T07:15:18;101238.94;;;15.83;100.00
21904;BME280;11116;51.554;7.812;2022-07-22T07:17:45;101235.59;;;15.81;100.00
21904;BME280;11116;51.554;7.812;2022-07-22T07:20:15;101231.25;;;16.07;100.00
21904;BME280;11116;51.554;7.812;2022-07-22T07:22:42;101231.06;;;15.91;100.00
21904;BME280;11116;51.554;7.812;2022-07-22T07:25:09;101226.06;;;16.06;100.00
21904;BME280;11116;51.554;7.812;2022-07-22T07:27:35;101221.66;;;15.60;100.00
21904;BME280;11116;51.554;7.812;2022-07-22T07:30:08;101218.31;;;15.58;100.00
21904;BME280;11116;51.554;7.812;2022-07-22T07:32:35;101225.34;;;15.86;100.00
21904;BME280;11116;51.554;7.812;2022-07-22T07:35:02;101226.63;;;16.09;100.00
21904;BME280;11116;51.554;7.812;2022-07-22T07:37:29;101223.56;;;16.04;100.00
21904;BME280;11116;51.554;7.812;2022-07-22T07:39:56;101219.50;;;16.27;100.00
21904;BME280;11116;51.554;7.812;2022-07-22T07:42:23;101220.97;;;16.57;100.00
21904;BME280;11116;51.554;7.812;2022-07-22T07:44:50;101233.22;;;16.50;100.00
21904;BME280;11116;51.554;7.812;2022-07-22T07:47:18;101225.25;;;16.23;100.00
21904;BME280;11116;51.554;7.812;2022-07-22T07:49:48;101227.22;;;16.48;100.00
21904;BME280;11116;51.554;7.812;2022-07-22T07:52:16;101227.69;;;16.61;100.00
21904;BME280;11116;51.554;7.812;2022-07-22T07:54:45;101222.50;;;16.15;100.00
21904;BME280;11116;51.554;7.812;2022-07-22T07:57:13;101217.53;;;16.47;100.00
21904;BME280;11116;51.554;7.812;2022-07-22T07:59:40;101212.47;;;16.26;100.00
21904;BME280;11116;51.554;7.812;2022-07-22T08:02:07;101218.09;;;16.68;100.00
21904;BME280;11116;51.554;7.812;2022-07-22T08:04:36;101220.53;;;16.79;100.00
21904;BME280;11116;51.554;7.812;2022-07-22T08:07:07;101219.22;;;16.83;100.00
21904;BME280;11116;51.554;7.812;2022-07-22T08:09:33;101210.91;;;16.69;100.00
21904;BME280;11116;51.554;7.812;2022-07-22T08:12:08;101201.63;;;16.55;100.00
21904;BME280;11116;51.554;7.812;2022-07-22T08:14:49;101211.16;;;16.13;100.00
21904;BME280;11116;51.554;7.812;2022-07-22T08:17:25;101209.47;;;16.39;100.00
21904;BME280;11116;51.554;7.812;2022-07-22T08:19:54;101207.34;;;16.43;100.00
21904;BME280;11116;51.554;7.812;2022-07-22T08:22:20;101206.69;;;16.49;100.00
21904;BME280;11116;51.554;7.812;2022-07-22T08:24:48;101203.84;;;16.60;100.00
21904;BME280;11116;51.554;7.812;2022-07-22T08:27:16;101199.00;;;16.46;100.00
21904;BME280;11116;51.554;7.812;2022-07-22T08:29:43;101199.19;;;16.62;100.00
21904;BME280;11116;51.554;7.812;2022-07-22T08:32:10;101201.84;;;16.79;100.00
21904;BME280;11116;51.554;7.812;2022-07-22T08:34:37;101200.38;;;17.03;100.00
21904;BME280;11116;51.554;7.812;2022-07-22T08:37:06;101192.44;;;16.93;100.00
21904;BME280;11116;51.554;7.812;2022-07-22T08:39:33;101196.19;;;17.26;100.00
21904;BME280;11116;51.554;7.812;2022-07-22T08:42:00;101199.78;;;17.68;100.00
21904;BME280;11116;51.554;7.812;2022-07-22T08:44:29;101191.16;;;17.82;100.00
21904;BME280;11116;51.554;7.812;2022-07-22T08:46:56;101188.38;;;18.00;100.00
21904;BME280;11116;51.554;7.812;2022-07-22T08:49:49;101188.06;;;18.03;100.00
21904;BME280;11116;51.554;7.812;2022-07-22T08:52:37;101191.75;;;18.02;100.00
21904;BME280;11116;51.554;7.812;2022-07-22T08:55:05;101178.69;;;18.65;98.59
21904;BME280;11116;51.554;7.812;2022-07-22T08:57:32;101188.22;;;18.92;97.80
21904;BME280;11116;51.554;7.812;2022-07-22T09:00:00;101181.19;;;18.58;94.44
21904;BME280;11116;51.554;7.812;2022-07-22T09:02:36;101179.53;;;18.82;92.17
21904;BME280;11116;51.554;7.812;2022-07-22T09:05:05;101174.13;;;19.14;92.90
21904;BME280;11116;51.554;7.812;2022-07-22T09:07:36;101179.81;;;19.19;92.13
21904;BME280;11116;51.554;7.812;2022-07-22T09:10:11;101176.84;;;18.82;93.00
21904;BME280;11116;51.554;7.812;2022-07-22T09:12:58;101181.38;;;18.89;93.74
21904;BME280;11116;51.554;7.812;2022-07-22T09:15:48;101180.31;;;18.42;91.64
21904;BME280;11116;51.554;7.812;2022-07-22T09:18:44;101191.25;;;18.06;94.71
21904;BME280;11116;51.554;7.812;2022-07-22T09:21:36;101190.34;;;18.40;93.80
21904;BME280;11116;51.554;7.812;2022-07-22T09:24:26;101188.16;;;18.35;92.59
21904;BME280;11116;51.554;7.812;2022-07-22T09:26:57;101191.22;;;18.48;93.93
21904;BME280;11116;51.554;7.812;2022-07-22T09:29:30;101194.84;;;18.39;95.42
21904;BME280;11116;51.554;7.812;2022-07-22T09:32:12;101206.63;;;18.54;96.98
21904;BME280;11116;51.554;7.812;2022-07-22T09:35:05;101199.59;;;18.61;96.22
21904;BME280;11116;51.554;7.812;2022-07-22T09:37:48;101196.09;;;18.03;96.00
21904;BME280;11116;51.554;7.812;2022-07-22T09:40:16;101203.63;;;18.08;99.22
21904;BME280;11116;51.554;7.812;2022-07-22T09:42:46;101200.75;;;17.93;98.63
21904;BME280;11116;51.554;7.812;2022-07-22T09:45:14;101202.94;;;18.05;100.00
21904;BME280;11116;51.554;7.812;2022-07-22T09:47:42;101190.19;;;17.83;99.40
21904;BME280;11116;51.554;7.812;2022-07-22T09:50:32;101198.84;;;17.77;100.00
21904;BME280;11116;51.554;7.812;2022-07-22T09:53:19;101196.13;;;17.69;100.00
21904;BME280;11116;51.554;7.812;2022-07-22T09:56:07;101195.88;;;17.88;100.00
21904;BME280;11116;51.554;7.812;2022-07-22T09:58:36;101198.06;;;17.59;100.00
21904;BME280;11116;51.554;7.812;2022-07-22T10:01:10;101197.19;;;17.25;100.00
21904;BME280;11116;51.554;7.812;2022-07-22T10:03:38;101206.13;;;17.16;100.00
21904;BME280;11116;51.554;7.812;2022-07-22T10:06:07;101196.88;;;17.28;100.00
21904;BME280;11116;51.554;7.812;2022-07-22T10:08:36;101193.47;;;17.43;99.45
21904;BME280;11116;51.554;7.812;2022-07-22T10:11:05;101200.63;;;17.43;99.57
21904;BME280;11116;51.554;7.812;2022-07-22T10:13:32;101196.47;;;17.74;98.28
21904;BME280;11116;51.554;7.812;2022-07-22T10:16:04;101192.81;;;17.75;97.05
21904;BME280;11116;51.554;7.812;2022-07-22T10:18:32;101193.16;;;17.72;97.09
21904;BME280;11116;51.554;7.812;2022-07-22T10:21:05;101189.81;;;17.70;97.40
21904;BME280;11116;51.554;7.812;2022-07-22T10:23:32;101194.34;;;17.78;97.80
21904;BME280;11116;51.554;7.812;2022-07-22T10:26:00;101186.66;;;17.83;97.37
21904;BME280;11116;51.554;7.812;2022-07-22T10:28:30;101192.19;;;17.30;98.75
21904;BME280;11116;51.554;7.812;2022-07-22T10:31:20;101184.91;;;17.66;95.66
21904;BME280;11116;51.554;7.812;2022-07-22T10:33:48;101189.84;;;17.86;95.45
21904;BME280;11116;51.554;7.812;2022-07-22T10:36:30;101188.91;;;18.03;96.10
21904;BME280;11116;51.554;7.812;2022-07-22T10:39:06;101183.31;;;18.31;95.31
21904;BME280;11116;51.554;7.812;2022-07-22T10:41:35;101186.13;;;18.21;91.77
21904;BME280;11116;51.554;7.812;2022-07-22T10:44:03;101169.09;;;18.22;92.07
21904;BME280;11116;51.554;7.812;2022-07-22T10:46:49;101182.03;;;18.67;92.64
21904;BME280;11116;51.554;7.812;2022-07-22T10:49:19;101179.34;;;18.59;90.49
21904;BME280;11116;51.554;7.812;2022-07-22T10:52:10;101178.19;;;18.78;88.99
21904;BME280;11116;51.554;7.812;2022-07-22T10:55:18;101172.28;;;18.34;89.54
21904;BME280;11116;51.554;7.812;2022-07-22T10:57:45;101170.94;;;18.30;90.90
21904;BME280;11116;51.554;7.812;2022-07-22T11:00:13;101167.59;;;18.44;91.65
21904;BME280;11116;51.554;7.812;2022-07-22T11:02:42;101169.31;;;18.69;90.99
21904;BME280;11116;51.554;7.812;2022-07-22T11:05:09;101165.66;;;18.62;89.33
21904;BME280;11116;51.554;7.812;2022-07-22T11:07:41;101164.84;;;18.03;93.54
21904;BME280;11116;51.554;7.812;2022-07-22T11:10:09;101160.03;;;18.23;92.55
21904;BME280;11116;51.554;7.812;2022-07-22T11:12:36;101158.19;;;18.08;94.64
21904;BME280;11116;51.554;7.812;2022-07-22T11:15:05;101156.91;;;18.28;96.54
21904;BME280;11116;51.554;7.812;2022-07-22T11:17:33;101149.78;;;18.02;91.10
21904;BME280;11116;51.554;7.812;2022-07-22T11:20:03;101142.94;;;18.00;90.81
21904;BME280;11116;51.554;7.812;2022-07-22T11:22:31;101138.50;;;18.33;91.01
21904;BME280;11116;51.554;7.812;2022-07-22T11:25:00;101139.72;;;18.63;95.23
21904;BME280;11116;51.554;7.812;2022-07-22T11:27:27;101135.72;;;18.75;90.90
21904;BME280;11116;51.554;7.812;2022-07-22T11:29:54;101142.41;;;18.71;89.34
21904;BME280;11116;51.554;7.812;2022-07-22T11:32:23;101140.78;;;19.33;90.77
21904;BME280;11116;51.554;7.812;2022-07-22T11:34:50;101129.84;;;19.58;84.88
21904;BME280;11116;51.554;7.812;2022-07-22T11:37:20;101143.69;;;19.15;85.78
21904;BME280;11116;51.554;7.812;2022-07-22T11:39:48;101148.91;;;18.84;86.64
21904;BME280;11116;51.554;7.812;2022-07-22T11:42:15;101150.66;;;19.40;89.18
21904;BME280;11116;51.554;7.812;2022-07-22T11:44:42;101140.94;;;19.31;86.23
21904;BME280;11116;51.554;7.812;2022-07-22T11:47:10;101152.09;;;18.80;89.33
21904;BME280;11116;51.554;7.812;2022-07-22T11:49:38;101143.34;;;19.65;85.60
21904;BME280;11116;51.554;7.812;2022-07-22T11:52:06;101135.59;;;19.39;84.11
21904;BME280;11116;51.554;7.812;2022-07-22T11:54:38;101139.22;;;18.83;81.86
21904;BME280;11116;51.554;7.812;2022-07-22T11:57:06;101145.13;;;19.50;84.15
21904;BME280;11116;51.554;7.812;2022-07-22T11:59:33;101140.53;;;19.66;83.72
21904;BME280;11116;51.554;7.812;2022-07-22T12:02:02;101148.28;;;19.45;84.37
21904;BME280;11116;51.554;7.812;2022-07-22T12:04:30;101153.72;;;19.76;83.19
21904;BME280;11116;51.554;7.812;2022-07-22T12:06:59;101141.59;;;19.33;81.81
21904;BME280;11116;51.554;7.812;2022-07-22T12:09:30;101135.91;;;19.83;81.68
21904;BME280;11116;51.554;7.812;2022-07-22T12:11:59;101131.56;;;19.27;80.39
21904;BME280;11116;51.554;7.812;2022-07-22T12:14:28;101123.63;;;19.89;80.27
21904;BME280;11116;51.554;7.812;2022-07-22T12:16:57;101126.06;;;20.06;80.89
21904;BME280;11116;51.554;7.812;2022-07-22T12:19:25;101109.13;;;20.06;77.12
21904;BME280;11116;51.554;7.812;2022-07-22T12:21:56;101119.81;;;19.52;80.32
21904;BME280;11116;51.554;7.812;2022-07-22T12:24:28;101113.25;;;19.94;81.07
21904;BME280;11116;51.554;7.812;2022-07-22T12:26:56;101106.50;;;20.20;77.84
21904;BME280;11116;51.554;7.812;2022-07-22T12:29:29;101112.81;;;19.74;79.06
21904;BME280;11116;51.554;7.812;2022-07-22T12:31:57;101121.56;;;19.68;81.72
21904;BME280;11116;51.554;7.812;2022-07-22T12:34:30;101125.56;;;19.41;81.46
21904;BME280;11116;51.554;7.812;2022-07-22T12:36:57;101111.63;;;19.85;81.20
21904;BME280;11116;51.554;7.812;2022-07-22T12:39:24;101107.75;;;19.48;78.62
21904;BME280;11116;51.554;7.812;2022-07-22T12:41:54;101110.50;;;19.16;82.34
21904;BME280;11116;51.554;7.812;2022-07-22T12:44:22;101115.41;;;19.04;81.12
21904;BME280;11116;51.554;7.812;2022-07-22T12:46:53;101098.34;;;19.05;81.65
21904;BME280;11116;51.554;7.812;2022-07-22T12:49:21;101096.88;;;19.81;80.96
21904;BME280;11116;51.554;7.812;2022-07-22T12:52:13;101098.09;;;20.23;79.65
21904;BME280;11116;51.554;7.812;2022-07-22T12:54:40;101094.78;;;20.44;77.66
21904;BME280;11116;51.554;7.812;2022-07-22T12:57:08;101099.06;;;19.77;77.27